Hauptseite
METAR-TAF:

METAR-TAF

Flughäfen :

Stuttgart, Deutschland

Flughafen Stuttgart

Breite: 48-41N, Länge: 009-13E, Höhe: 396 m

Beobachtung

Neuester Wetterbericht von vor 34 Minuten, um 23:20 UTC
Wind 1 kt aus unterschiedlichen Richtungen
Temperatur -1°C
Luftfeuchtigkeit 93%
Luftdruck 1032 hPa
Sichtweite 10 km oder mehr
keine Wolken unter 1500 m und keine Kumulonimbus oder Gewitterwolken

METAR: EDDS 082320Z VRB01KT CAVOK M01/M02 Q1032

Zeit: 00:54 (23:54 UTC)

Prognose

Neuester Wetterbericht von vor 54 Minuten, um 23:00 UTC
Gültige Prognose vom 09 um 00 UTC bis 09 um 24 UTC
Wind 3 kt aus unterschiedlichen Richtungen
Sichtweite 10 km oder mehr
keine Wolken unter 1500 m und keine Kumulonimbus oder Gewitterwolken

TAF: EDDS 082300Z 0900/0924 VRB03KT CAVOK

Wetterbeobachtungen und Prognosen von mehr als 4000 Flughäfen (METAR und TAF Bericht).

Die verfügbaren Stationen werden durch gelbe und rote Markierungen auf der Karte dargestellt.

Führen Sie die Maus auf sie, um den Namen der Station zu sehen.

Darauf klicken, um die Beobachtung von Wetterbeobachtungen und Prognosen zu sehen.

Um die Karte zu ändern : klicken Sie auf den grünen Tasten mit einem schwarzen Kreuz Zum Vergrößern, auf den grünen Button mit einem Gedankenstrich zu verkleinern, oder auf die grünen Pfeile für benachbarte Karten.


METAR-TAF: